Time;durP1;ratioP1;P1;durP2;ratioP2;P2;SDS_P1;SDS_P2;PMS_P1;PMS_P2;Temp;Humidity;BMP_temperature;BMP_pressure;BME280_temperature;BME280_humidity;BME280_pressure;Samples;Min_cycle;Max_cycle;Signal;HPM_P1;HPM_P2
2024/04/08 00:00:21;;;;;;;;;;;;;;;21.44;29.88;98543.16;5000862;28;960;-76
2024/04/08 00:02:50;;;;;;;;;;;;;;;21.19;30.37;98552.88;5017469;28;1914;-76
2024/04/08 00:05:18;;;;;;;;;;;;;;;21.28;30.31;98541.78;5033997;28;778;-76
2024/04/08 00:07:44;;;;;;;;;;;;;;;21.29;30.18;98549.03;5017358;28;1161;-76
2024/04/08 00:10:10;;;;;;;;;;;;;;;21.36;30.09;98553.03;5017367;28;716;-76
2024/04/08 00:12:37;;;;;;;;;;;;;;;21.21;30.15;98547.56;5033667;28;1028;-76
2024/04/08 00:15:03;;;;;;;;;;;;;;;21.37;30.21;98555.41;5029556;28;1270;-76
2024/04/08 00:17:29;;;;;;;;;;;;;;;21.27;30.02;98545.84;5033723;28;816;-77
2024/04/08 00:19:55;;;;;;;;;;;;;;;21.26;30.29;98549.91;5033846;28;817;-76
2024/04/08 00:22:20;;;;;;;;;;;;;;;21.30;30.20;98550.69;5033405;28;1906;-76
2024/04/08 00:24:46;;;;;;;;;;;;;;;21.23;30.41;98556.41;5016979;28;1236;-76
2024/04/08 00:27:11;;;;;;;;;;;;;;;21.14;30.47;98547.69;5033676;28;715;-76
2024/04/08 00:29:37;;;;;;;;;;;;;;;21.38;30.11;98544.88;5033439;28;979;-77
2024/04/08 00:32:03;;;;;;;;;;;;;;;21.26;30.17;98543.44;5033359;28;978;-77
2024/04/08 00:34:28;;;;;;;;;;;;;;;21.42;29.88;98556.97;5016907;28;1202;-77
2024/04/08 00:36:54;;;;;;;;;;;;;;;21.32;30.05;98548.22;5033298;28;767;-76
2024/04/08 00:39:19;;;;;;;;;;;;;;;21.28;29.91;98552.31;5033146;28;1143;-77
2024/04/08 00:41:45;;;;;;;;;;;;;;;21.40;29.67;98559.41;5033401;28;854;-76
2024/04/08 00:44:10;;;;;;;;;;;;;;;21.20;30.08;98551.63;5033522;28;1910;-76
2024/04/08 00:46:36;;;;;;;;;;;;;;;21.30;30.08;98550.69;5033189;28;1004;-77
2024/04/08 00:49:02;;;;;;;;;;;;;;;21.23;30.10;98556.41;5050018;28;1189;-76
2024/04/08 00:51:27;;;;;;;;;;;;;;;21.01;30.24;98560.81;5053030;28;1058;-76
2024/04/08 00:53:53;;;;;;;;;;;;;;;21.35;29.90;98557.88;5054157;28;755;-76
2024/04/08 00:56:20;;;;;;;;;;;;;;;21.24;30.12;98563.69;5020435;28;970;-76
2024/04/08 00:58:46;;;;;;;;;;;;;;;21.18;30.31;98556.09;5053702;28;770;-76
2024/04/08 01:01:15;;;;;;;;;;;;;;;21.14;30.05;98553.34;5049529;28;1136;-77
2024/04/08 01:03:42;;;;;;;;;;;;;;;21.35;29.82;98559.88;5070263;28;1988;-76
2024/04/08 01:06:08;;;;;;;;;;;;;;;21.17;30.00;98552.47;5071780;28;770;-77
2024/04/08 01:08:34;;;;;;;;;;;;;;;21.01;30.31;98560.81;5071404;28;811;-77
2024/04/08 01:10:59;;;;;;;;;;;;;;;20.95;30.70;98562.53;5039387;28;767;-76
2024/04/08 01:13:26;;;;;;;;;;;;;;;21.18;30.28;98554.06;5071497;28;1132;-76
2024/04/08 01:15:51;;;;;;;;;;;;;;;21.17;30.13;98560.97;5071357;28;1499;-76
2024/04/08 01:18:17;;;;;;;;;;;;;;;21.25;30.13;98562.47;5076635;28;1162;-77
2024/04/08 01:20:43;;;;;;;;;;;;;;;21.30;29.79;98567.66;5056723;28;1223;-77
2024/04/08 01:23:08;;;;;;;;;;;;;;;21.09;30.00;98562.31;5040305;28;1906;-76
2024/04/08 01:25:34;;;;;;;;;;;;;;;21.40;29.59;98559.41;5039582;28;1005;-77
2024/04/08 01:28:00;;;;;;;;;;;;;;;21.34;29.76;98567.59;5056447;28;969;-77
2024/04/08 01:30:26;;;;;;;;;;;;;;;21.13;29.98;98565.88;5040045;28;798;-76
2024/04/08 01:32:51;;;;;;;;;;;;;;;21.16;30.16;98562.19;5056531;28;924;-76
2024/04/08 01:35:17;;;;;;;;;;;;;;;21.12;29.98;98569.94;5023426;28;938;-76
2024/04/08 01:37:42;;;;;;;;;;;;;;;21.13;29.78;98568.72;5039715;28;1303;-76
2024/04/08 01:40:08;;;;;;;;;;;;;;;21.14;29.93;98581.66;5056215;28;941;-76
2024/04/08 01:42:34;;;;;;;;;;;;;;;21.24;29.80;98580.69;5056443;28;1910;-76
2024/04/08 01:44:59;;;;;;;;;;;;;;;21.14;29.85;98570.34;5039714;28;961;-77
2024/04/08 01:47:25;;;;;;;;;;;;;;;21.24;29.81;98575.03;5056422;28;1023;-76
2024/04/08 01:49:51;;;;;;;;;;;;;;;21.41;29.33;98578.00;4993784;28;981;-76
2024/04/08 01:52:16;;;;;;;;;;;;;;;21.38;29.53;98574.00;5047626;28;1404;-76
2024/04/08 01:54:42;;;;;;;;;;;;;;;21.47;29.53;98573.47;5019613;28;1245;-76
2024/04/08 01:57:07;;;;;;;;;;;;;;;21.17;30.05;98568.66;5032110;28;1189;-76
2024/04/08 01:59:33;;;;;;;;;;;;;;;21.01;30.10;98578.59;5037440;28;1177;-76
2024/04/08 02:01:58;;;;;;;;;;;;;;;21.15;29.93;98577.59;5037577;28;900;-76
2024/04/08 02:04:24;;;;;;;;;;;;;;;21.32;29.56;98578.56;5070432;28;1913;-77
2024/04/08 02:06:49;;;;;;;;;;;;;;;21.24;29.75;98586.34;5038453;28;711;-76
2024/04/08 02:09:15;;;;;;;;;;;;;;;21.21;29.75;98581.53;5037121;28;1306;-77
2024/04/08 02:11:41;;;;;;;;;;;;;;;21.16;29.77;98590.50;5037293;28;715;-76
2024/04/08 02:14:06;;;;;;;;;;;;;;;21.08;30.06;98598.28;5038052;28;756;-77
2024/04/08 02:16:32;;;;;;;;;;;;;;;21.03;29.94;98595.13;5038245;28;798;-76
2024/04/08 02:18:57;;;;;;;;;;;;;;;21.07;30.15;98593.06;5038215;28;866;-76
2024/04/08 02:21:23;;;;;;;;;;;;;;;21.23;29.56;98596.03;5038196;28;739;-77
2024/04/08 02:23:48;;;;;;;;;;;;;;;21.22;29.69;98597.28;5037839;28;1906;-76
2024/04/08 02:26:14;;;;;;;;;;;;;;;21.09;30.09;98579.31;5053387;28;734;-77
2024/04/08 02:28:39;;;;;;;;;;;;;;;21.33;29.56;98592.25;5070205;28;775;-76
2024/04/08 02:31:05;;;;;;;;;;;;;;;21.17;29.70;98592.09;5053136;28;755;-76
2024/04/08 02:33:31;;;;;;;;;;;;;;;21.22;30.05;98591.63;5069964;28;849;-77
2024/04/08 02:36:03;;;;;;;;;;;;;;;21.44;30.06;98588.47;5053343;28;775;-76
2024/04/08 02:38:28;;;;;;;;;;;;;;;21.49;30.11;98585.13;5074842;28;1250;-76
2024/04/08 02:40:54;;;;;;;;;;;;;;;21.31;30.31;98577.75;5075124;28;1007;-76
2024/04/08 02:43:19;;;;;;;;;;;;;;;21.14;30.72;98580.81;5074841;28;1983;-76
2024/04/08 02:45:45;;;;;;;;;;;;;;;21.17;30.65;98589.25;5054961;28;1068;-76
2024/04/08 02:48:10;;;;;;;;;;;;;;;21.16;30.21;98575.56;5038581;28;973;-76
2024/04/08 02:50:36;;;;;;;;;;;;;;;21.12;30.59;98583.28;5054922;28;780;-77
2024/04/08 02:53:01;;;;;;;;;;;;;;;21.18;30.32;98582.38;5055376;28;821;-76
2024/04/08 02:55:27;;;;;;;;;;;;;;;21.10;30.45;98577.28;5038440;28;1170;-76
2024/04/08 02:57:52;;;;;;;;;;;;;;;21.32;30.32;98579.34;5038217;28;856;-76
2024/04/08 03:00:18;;;;;;;;;;;;;;;21.37;30.18;98577.28;5038029;28;1970;-77
2024/04/08 03:02:44;;;;;;;;;;;;;;;21.45;30.21;98584.38;5054503;28;1959;-76
2024/04/08 03:05:10;;;;;;;;;;;;;;;21.56;29.89;98573.72;5038163;28;988;-76
2024/04/08 03:07:36;;;;;;;;;;;;;;;21.42;30.36;98582.44;5038044;28;735;-77
2024/04/08 03:10:02;;;;;;;;;;;;;;;21.38;30.16;98581.69;5023749;28;764;-76
2024/04/08 03:12:27;;;;;;;;;;;;;;;21.40;30.21;98580.06;5033756;28;857;-77
2024/04/08 03:14:53;;;;;;;;;;;;;;;21.68;29.92;98590.06;5017435;28;834;-76
2024/04/08 03:17:18;;;;;;;;;;;;;;;21.51;30.32;98586.31;5021285;28;900;-76
2024/04/08 03:19:43;;;;;;;;;;;;;;;21.60;30.08;98597.06;5054583;28;1128;-76
2024/04/08 03:22:09;;;;;;;;;;;;;;;21.39;30.45;98586.13;5037099;28;1909;-76
2024/04/08 03:24:35;;;;;;;;;;;;;;;21.29;30.41;98593.53;5037360;28;763;-76
2024/04/08 03:27:00;;;;;;;;;;;;;;;21.35;30.61;98586.19;5054160;28;867;-76
2024/04/08 03:29:25;;;;;;;;;;;;;;;21.57;30.21;98589.47;5054490;28;743;-76
2024/04/08 03:31:51;;;;;;;;;;;;;;;21.63;30.09;98596.22;5021088;28;913;-76
2024/04/08 03:34:16;;;;;;;;;;;;;;;21.55;30.15;98589.06;5020984;28;1115;-76
2024/04/08 03:36:42;;;;;;;;;;;;;;;21.62;30.13;98588.97;4997751;28;1117;-77
2024/04/08 03:39:08;;;;;;;;;;;;;;;21.48;30.35;98589.22;4998314;28;1090;-77
2024/04/08 03:41:33;;;;;;;;;;;;;;;21.57;30.28;98587.44;5014380;28;832;-76
2024/04/08 03:43:59;;;;;;;;;;;;;;;21.51;30.50;98588.34;4967603;28;1976;-76
2024/04/08 03:46:24;;;;;;;;;;;;;;;21.44;30.39;98594.13;4978438;28;1162;-76
2024/04/08 03:48:50;;;;;;;;;;;;;;;21.70;30.21;98596.09;4994959;28;964;-76
2024/04/08 03:51:17;;;;;;;;;;;;;;;21.06;31.46;98597.13;4994813;28;958;-76
2024/04/08 03:53:42;;;;;;;;;;;;;;;21.42;30.60;98602.25;4978501;28;1208;-76
2024/04/08 03:56:08;;;;;;;;;;;;;;;21.09;31.09;98590.63;4994656;28;1024;-76
2024/04/08 03:58:34;;;;;;;;;;;;;;;21.04;31.24;98600.38;5010859;28;1118;-76
2024/04/08 04:01:00;;;;;;;;;;;;;;;21.19;31.11;98605.81;5010976;28;1326;-76
2024/04/08 04:03:26;;;;;;;;;;;;;;;21.72;30.28;98602.16;4994332;28;1906;-76
2024/04/08 04:05:51;;;;;;;;;;;;;;;21.34;30.50;98601.56;4994487;28;1062;-76
2024/04/08 04:08:17;;;;;;;;;;;;;;;21.42;30.24;98605.88;5052947;28;1445;-76
2024/04/08 04:10:44;;;;;;;;;;;;;;;21.06;30.63;98609.22;5036395;28;907;-76
2024/04/08 04:13:10;;;;;;;;;;;;;;;20.42;32.11;98601.59;5035807;28;867;-76
2024/04/08 04:15:35;;;;;;;;;;;;;;;20.73;31.47;98602.44;5068389;28;908;-76
2024/04/08 04:18:01;;;;;;;;;;;;;;;20.96;31.27;98606.56;5051453;28;1133;-76
2024/04/08 04:20:29;;;;;;;;;;;;;;;20.57;31.88;98610.72;5068010;28;1064;-76
2024/04/08 04:22:55;;;;;;;;;;;;;;;20.14;32.54;98611.19;5050884;28;1910;-76
2024/04/08 04:25:20;;;;;;;;;;;;;;;20.76;31.73;98612.88;5034332;28;929;-76
2024/04/08 04:27:46;;;;;;;;;;;;;;;20.20;32.90;98615.16;5051286;28;1125;-76
2024/04/08 04:30:12;;;;;;;;;;;;;;;20.24;32.61;98615.94;5034749;28;1248;-76
2024/04/08 04:32:37;;;;;;;;;;;;;;;20.55;31.99;98618.81;5051510;28;978;-76
2024/04/08 04:35:03;;;;;;;;;;;;;;;21.20;32.26;98625.22;5051217;28;1118;-76
2024/04/08 04:37:29;;;;;;;;;;;;;;;22.10;30.83;98624.53;5067943;28;1076;-76
2024/04/08 04:39:54;;;;;;;;;;;;;;;21.46;31.07;98620.00;5068314;28;901;-76
2024/04/08 04:42:20;;;;;;;;;;;;;;;21.03;31.52;98620.59;5035754;28;1918;-76
2024/04/08 04:44:45;;;;;;;;;;;;;;;20.71;31.76;98615.38;5035977;28;887;-77
2024/04/08 04:47:11;;;;;;;;;;;;;;;20.62;32.17;98617.94;5034794;28;1386;-76
2024/04/08 04:49:36;;;;;;;;;;;;;;;20.58;32.57;98622.84;5051268;28;980;-75
2024/04/08 04:52:03;;;;;;;;;;;;;;;20.64;32.49;98621.94;5067548;28;887;-76
2024/04/08 04:54:28;;;;;;;;;;;;;;;20.02;33.88;98625.88;5035839;28;1020;-76
2024/04/08 04:56:54;;;;;;;;;;;;;;;20.66;33.34;98630.00;5093466;28;1005;-76
2024/04/08 04:59:19;;;;;;;;;;;;;;;21.02;32.82;98630.31;5059848;28;979;-76
2024/04/08 05:01:45;;;;;;;;;;;;;;;20.75;33.75;98628.25;5093372;28;996;-76
2024/04/08 05:04:10;;;;;;;;;;;;;;;20.93;33.47;98635.69;5076324;28;1977;-76
2024/04/08 05:06:36;;;;;;;;;;;;;;;20.75;33.93;98627.47;5076562;28;1277;-75
2024/04/08 05:09:02;;;;;;;;;;;;;;;21.01;33.68;98629.53;5059552;28;1456;-76
2024/04/08 05:11:28;;;;;;;;;;;;;;;21.04;33.80;98622.22;5036292;28;1029;-75
2024/04/08 05:13:53;;;;;;;;;;;;;;;21.07;33.32;98624.19;5053207;28;940;-75
2024/04/08 05:16:19;;;;;;;;;;;;;;;20.68;33.59;98622.72;5052831;28;950;-75
2024/04/08 05:18:44;;;;;;;;;;;;;;;20.85;32.73;98628.56;5036167;28;976;-75
2024/04/08 05:21:10;;;;;;;;;;;;;;;20.74;32.80;98632.31;5052942;28;1122;-75
2024/04/08 05:23:35;;;;;;;;;;;;;;;20.40;33.22;98625.84;5019604;28;1909;-75
2024/04/08 05:26:02;;;;;;;;;;;;;;;20.57;32.76;98626.88;5053067;28;946;-76
2024/04/08 05:28:28;;;;;;;;;;;;;;;20.18;33.75;98625.28;5007552;28;941;-75
2024/04/08 05:30:53;;;;;;;;;;;;;;;20.30;33.63;98619.88;5029932;28;988;-75
2024/04/08 05:33:20;;;;;;;;;;;;;;;20.62;33.19;98613.06;5013134;28;1095;-75
2024/04/08 05:35:46;;;;;;;;;;;;;;;20.47;33.86;98622.97;5013043;28;1308;-74
2024/04/08 05:38:11;;;;;;;;;;;;;;;20.62;33.75;98617.94;5016840;28;1045;-75
2024/04/08 05:40:37;;;;;;;;;;;;;;;20.50;34.32;98617.25;5033343;28;988;-75
2024/04/08 05:43:03;;;;;;;;;;;;;;;20.87;33.82;98617.59;5016887;28;1988;-75
2024/04/08 05:45:28;;;;;;;;;;;;;;;20.62;34.34;98613.06;5033398;28;976;-75
2024/04/08 05:47:54;;;;;;;;;;;;;;;20.76;34.04;98617.75;5035258;28;1145;-76
2024/04/08 05:50:20;;;;;;;;;;;;;;;20.85;33.73;98618.03;5054551;28;1146;-75
2024/04/08 05:52:45;;;;;;;;;;;;;;;20.65;34.02;98614.25;5039123;28;1026;-75
2024/04/08 05:55:11;;;;;;;;;;;;;;;20.61;33.64;98617.13;5039081;28;1056;-75
2024/04/08 05:57:37;;;;;;;;;;;;;;;20.92;32.66;98625.63;5054262;28;847;-75
2024/04/08 06:00:02;;;;;;;;;;;;;;;20.56;32.99;98614.78;5037148;28;936;-75
2024/04/08 06:02:30;;;;;;;;;;;;;;;20.52;33.03;98625.31;5063603;28;1918;-75
2024/04/08 06:04:56;;;;;;;;;;;;;;;20.87;32.54;98623.25;5051439;28;1242;-75
2024/04/08 06:07:21;;;;;;;;;;;;;;;20.79;32.48;98628.22;5097188;28;1133;-75
2024/04/08 06:09:47;;;;;;;;;;;;;;;20.60;32.52;98624.00;5065663;28;1219;-75
2024/04/08 06:12:12;;;;;;;;;;;;;;;20.33;33.35;98628.75;5060866;28;1567;-75
2024/04/08 06:14:38;;;;;;;;;;;;;;;20.70;32.82;98625.09;5073736;28;890;-75
2024/04/08 06:17:04;;;;;;;;;;;;;;;20.66;32.77;98633.63;5058405;28;928;-75
2024/04/08 06:19:31;;;;;;;;;;;;;;;20.58;33.40;98634.97;5090415;28;1040;-75
2024/04/08 06:21:56;;;;;;;;;;;;;;;20.93;33.09;98632.88;5095697;28;1080;-75
2024/04/08 06:24:22;;;;;;;;;;;;;;;21.07;32.71;98627.00;5078774;28;1898;-75
2024/04/08 06:26:47;;;;;;;;;;;;;;;20.88;33.24;98636.16;5080228;28;1333;-75
2024/04/08 06:29:12;;;;;;;;;;;;;;;21.11;33.01;98639.09;5087342;28;1239;-75
2024/04/08 06:31:38;;;;;;;;;;;;;;;21.04;33.36;98644.84;5045537;28;1387;-75
2024/04/08 06:34:04;;;;;;;;;;;;;;;20.79;33.17;98646.00;5078844;28;943;-76
2024/04/08 06:36:31;;;;;;;;;;;;;;;20.61;33.41;98655.91;5054621;28;1112;-75
2024/04/08 06:38:57;;;;;;;;;;;;;;;20.76;32.99;98658.13;5029152;28;1396;-77
2024/04/08 06:41:22;;;;;;;;;;;;;;;20.73;32.85;98649.72;5044831;28;1246;-75
2024/04/08 06:43:48;;;;;;;;;;;;;;;20.55;33.08;98655.56;5029927;28;1971;-76
2024/04/08 06:46:13;;;;;;;;;;;;;;;20.43;32.92;98653.28;5022031;28;1261;-76
2024/04/08 06:48:39;;;;;;;;;;;;;;;20.44;33.05;98666.19;5018786;28;970;-75
2024/04/08 06:51:05;;;;;;;;;;;;;;;20.89;32.46;98663.25;5004963;28;1221;-75
2024/04/08 06:53:30;;;;;;;;;;;;;;;20.61;33.14;98661.56;4989889;28;1057;-75
2024/04/08 06:55:56;;;;;;;;;;;;;;;20.87;33.19;98660.03;4995939;28;1647;-75
2024/04/08 06:58:22;;;;;;;;;;;;;;;20.91;33.23;98658.75;5026970;28;955;-75
2024/04/08 07:00:47;;;;;;;;;;;;;;;20.90;33.63;98667.69;5015265;28;1490;-75
2024/04/08 07:03:13;;;;;;;;;;;;;;;21.13;33.18;98670.56;5031914;28;2048;-75
2024/04/08 07:05:39;;;;;;;;;;;;;;;20.81;33.48;98677.47;5031760;28;1005;-75
2024/04/08 07:08:05;;;;;;;;;;;;;;;20.84;33.12;98675.84;5031579;28;1078;-75
2024/04/08 07:10:30;;;;;;;;;;;;;;;21.02;32.78;98669.94;5035959;28;1045;-75
2024/04/08 07:12:56;;;;;;;;;;;;;;;20.55;33.14;98675.38;5037068;28;945;-76
2024/04/08 07:15:22;;;;;;;;;;;;;;;20.83;32.76;98662.09;5037112;28;936;-75
2024/04/08 07:17:47;;;;;;;;;;;;;;;20.80;32.53;98667.38;5069393;28;1057;-75
2024/04/08 07:20:13;;;;;;;;;;;;;;;20.70;33.00;98671.16;5061038;28;1274;-75
2024/04/08 07:22:39;;;;;;;;;;;;;;;20.73;32.66;98670.31;5065188;28;1983;-75
2024/04/08 07:25:04;;;;;;;;;;;;;;;20.60;33.25;98671.28;5065989;28;1188;-76
2024/04/08 07:27:30;;;;;;;;;;;;;;;20.85;33.27;98679.47;5083341;28;1267;-76
2024/04/08 07:29:55;;;;;;;;;;;;;;;20.97;33.48;98678.88;5056869;28;948;-76
2024/04/08 07:32:21;;;;;;;;;;;;;;;20.95;33.46;98681.34;5039359;28;1092;-76
2024/04/08 07:34:47;;;;;;;;;;;;;;;20.89;33.53;98675.38;5056177;28;959;-76
2024/04/08 07:37:13;;;;;;;;;;;;;;;20.60;33.90;98672.06;5055290;28;1053;-76
2024/04/08 07:39:39;;;;;;;;;;;;;;;20.45;33.63;98673.44;5039185;28;1126;-76
2024/04/08 07:42:04;;;;;;;;;;;;;;;20.67;33.27;98680.47;5055514;28;1014;-76
2024/04/08 07:44:30;;;;;;;;;;;;;;;20.92;32.55;98673.69;5063906;28;1910;-76
2024/04/08 07:48:19;;;;;;;;;;;;;;;20.59;33.26;98687.44;5509566;25;1479;-75
2024/04/08 07:50:45;;;;;;;;;;;;;;;20.67;32.79;98686.13;5510526;26;965;-75
2024/04/08 07:53:11;;;;;;;;;;;;;;;20.59;32.96;98692.31;5478374;26;1066;-75
2024/04/08 07:55:36;;;;;;;;;;;;;;;20.68;32.80;98693.41;5508682;26;942;-75
2024/04/08 07:58:02;;;;;;;;;;;;;;;20.32;33.50;98695.00;5478066;26;1164;-76
2024/04/08 08:00:27;;;;;;;;;;;;;;;20.32;33.43;98695.78;5508511;26;980;-75
2024/04/08 08:02:53;;;;;;;;;;;;;;;20.81;32.42;98694.44;5478102;26;907;-75
2024/04/08 08:05:19;;;;;;;;;;;;;;;20.82;33.09;98689.59;5447832;26;1141;-75
2024/04/08 08:07:44;;;;;;;;;;;;;;;20.94;33.23;98706.00;5477662;26;1844;-75
2024/04/08 08:10:10;;;;;;;;;;;;;;;20.98;33.27;98708.78;5508450;26;954;-75
2024/04/08 08:12:35;;;;;;;;;;;;;;;21.18;33.20;98708.91;5508219;26;933;-75
2024/04/08 08:15:01;;;;;;;;;;;;;;;20.85;33.49;98708.53;5507838;25;1251;-75
2024/04/08 08:17:26;;;;;;;;;;;;;;;20.98;33.12;98712.41;5508018;26;1440;-75
2024/04/08 08:19:52;;;;;;;;;;;;;;;20.82;33.12;98706.56;5508429;26;892;-75
2024/04/08 08:22:18;;;;;;;;;;;;;;;20.71;33.09;98701.03;5447361;26;1134;-76
2024/04/08 08:24:43;;;;;;;;;;;;;;;20.54;33.26;98702.03;5510222;25;900;-76
2024/04/08 08:27:09;;;;;;;;;;;;;;;20.44;33.22;98702.94;5508258;26;1829;-76
2024/04/08 08:29:34;;;;;;;;;;;;;;;20.58;33.08;98697.16;5508043;26;892;-76
2024/04/08 08:32:01;;;;;;;;;;;;;;;20.71;32.81;98701.03;5477748;26;1112;-75
2024/04/08 08:34:27;;;;;;;;;;;;;;;20.62;32.50;98703.56;5447556;26;1128;-76
2024/04/08 08:36:53;;;;;;;;;;;;;;;20.47;33.08;98713.44;5477379;26;1213;-75
2024/04/08 08:39:18;;;;;;;;;;;;;;;20.40;33.22;98707.81;5507749;26;1383;-75
2024/04/08 08:41:44;;;;;;;;;;;;;;;20.35;33.23;98713.91;5476787;26;1427;-75
2024/04/08 08:44:10;;;;;;;;;;;;;;;20.41;32.87;98712.25;5446413;25;1286;-75
2024/04/08 08:46:35;;;;;;;;;;;;;;;20.45;33.54;98710.97;5507045;26;1818;-75
2024/04/08 08:49:02;;;;;;;;;;;;;;;20.61;33.66;98703.97;5477072;26;1366;-75
2024/04/08 08:51:27;;;;;;;;;;;;;;;20.87;33.43;98714.56;5447435;26;1607;-75
2024/04/08 08:53:53;;;;;;;;;;;;;;;20.86;33.46;98706.50;5508140;26;892;-75
2024/04/08 08:56:19;;;;;;;;;;;;;;;20.96;33.06;98699.91;5507801;26;955;-76
2024/04/08 08:58:47;;;;;;;;;;;;;;;20.62;33.62;98697.91;5496666;26;932;-75
2024/04/08 09:01:14;;;;;;;;;;;;;;;20.66;33.41;98704.31;5491986;26;1006;-76
2024/04/08 09:03:40;;;;;;;;;;;;;;;20.45;33.45;98696.84;5491267;26;1271;-75
2024/04/08 09:06:08;;;;;;;;;;;;;;;20.80;32.75;98687.19;5491322;26;1833;-75
2024/04/08 09:08:34;;;;;;;;;;;;;;;20.44;33.09;98691.63;5491109;26;1390;-75
2024/04/08 09:11:04;;;;;;;;;;;;;;;20.57;32.88;98689.88;5493057;26;1183;-76
2024/04/08 09:13:31;;;;;;;;;;;;;;;20.76;32.45;98686.41;5461704;26;913;-75
2024/04/08 09:15:56;;;;;;;;;;;;;;;20.64;32.70;98684.16;5430799;26;1128;-75
2024/04/08 09:18:22;;;;;;;;;;;;;;;20.70;33.33;98684.50;5493315;26;944;-75
2024/04/08 09:20:47;;;;;;;;;;;;;;;20.79;33.34;98691.25;5493305;26;922;-75
2024/04/08 09:23:13;;;;;;;;;;;;;;;20.90;33.17;98676.16;5491632;26;1181;-76
2024/04/08 09:25:39;;;;;;;;;;;;;;;20.99;32.90;98676.44;5491476;26;1158;-75
2024/04/08 09:28:04;;;;;;;;;;;;;;;21.02;32.84;98669.94;5423362;26;1829;-75
2024/04/08 09:30:30;;;;;;;;;;;;;;;20.79;32.87;98674.28;5454196;26;921;-75
2024/04/08 09:32:55;;;;;;;;;;;;;;;20.59;33.11;98673.31;5423422;26;1039;-76
2024/04/08 09:35:21;;;;;;;;;;;;;;;20.90;32.52;98685.44;5423601;26;1267;-76
2024/04/08 09:37:51;;;;;;;;;;;;;;;20.70;32.45;98664.69;5424160;26;941;-76
2024/04/08 09:40:17;;;;;;;;;;;;;;;20.68;32.61;98673.63;5422411;26;1260;-75
2024/04/08 09:42:42;;;;;;;;;;;;;;;20.71;32.48;98678.41;5422910;26;1459;-75
2024/04/08 09:45:09;;;;;;;;;;;;;;;20.91;32.08;98672.09;5422803;26;1296;-75
2024/04/08 09:47:34;;;;;;;;;;;;;;;20.80;32.30;98670.22;5423048;26;1825;-75
2024/04/08 09:50:00;;;;;;;;;;;;;;;20.57;32.64;98675.75;5422954;26;1232;-75
2024/04/08 09:52:25;;;;;;;;;;;;;;;20.75;32.13;98667.06;5452683;26;1308;-75
2024/04/08 09:54:52;;;;;;;;;;;;;;;20.35;32.86;98657.41;5392943;26;1230;-76
2024/04/08 09:57:18;;;;;;;;;;;;;;;20.64;32.87;98661.53;5391058;26;1392;-75
2024/04/08 09:59:44;;;;;;;;;;;;;;;20.75;33.20;98662.19;5443387;26;1388;-76
2024/04/08 10:02:13;;;;;;;;;;;;;;;20.87;33.39;98660.03;5490344;26;1273;-76
2024/04/08 10:04:39;;;;;;;;;;;;;;;20.96;33.15;98660.31;5460129;26;1387;-76
2024/04/08 10:07:05;;;;;;;;;;;;;;;21.09;32.73;98652.88;5490464;26;1864;-76
2024/04/08 10:09:31;;;;;;;;;;;;;;;20.93;32.76;98656.28;5492250;26;1302;-75
2024/04/08 10:11:56;;;;;;;;;;;;;;;20.49;33.29;98648.78;5460165;26;1308;-76
2024/04/08 10:14:23;;;;;;;;;;;;;;;20.54;33.11;98648.31;5490290;26;1327;-75
2024/04/08 10:16:49;;;;;;;;;;;;;;;20.67;32.81;98632.41;5450708;26;1523;-76
2024/04/08 10:19:15;;;;;;;;;;;;;;;20.87;32.15;98649.50;5490181;26;1437;-75
2024/04/08 10:21:40;;;;;;;;;;;;;;;20.49;33.04;98643.13;5484674;26;1921;-77
2024/04/08 10:24:06;;;;;;;;;;;;;;;20.19;33.56;98641.81;5490149;26;1322;-76
2024/04/08 10:26:36;;;;;;;;;;;;;;;20.33;33.14;98640.06;5490137;26;1858;-76
2024/04/08 10:29:01;;;;;;;;;;;;;;;20.64;32.89;98627.59;5459649;26;1265;-76
2024/04/08 10:31:27;;;;;;;;;;;;;;;20.79;33.42;98631.06;5491776;26;1441;-76
2024/04/08 10:33:53;;;;;;;;;;;;;;;20.81;33.24;98626.56;5490346;26;1335;-77
2024/04/08 10:36:18;;;;;;;;;;;;;;;21.03;32.91;98623.44;5492385;26;983;-77
2024/04/08 10:38:43;;;;;;;;;;;;;;;21.04;33.05;98639.19;5459894;26;1113;-77
2024/04/08 10:41:09;;;;;;;;;;;;;;;20.65;33.43;98634.84;5490791;26;894;-75
2024/04/08 10:43:35;;;;;;;;;;;;;;;20.73;33.19;98625.06;5490552;26;935;-76
2024/04/08 10:46:08;;;;;;;;;;;;;;;20.89;32.62;98629.31;5490381;26;1849;-75
2024/04/08 10:48:35;;;;;;;;;;;;;;;20.92;32.39;98625.63;5490494;26;1044;-75
2024/04/08 10:51:00;;;;;;;;;;;;;;;20.77;32.60;98614.47;5430297;26;1125;-75
2024/04/08 10:53:26;;;;;;;;;;;;;;;20.53;32.88;98621.28;5490569;26;961;-76
2024/04/08 10:55:51;;;;;;;;;;;;;;;19.96;34.22;98616.25;5490188;26;1409;-75
2024/04/08 10:58:17;;;;;;;;;;;;;;;20.77;32.58;98622.97;5492084;26;930;-75
2024/04/08 11:00:44;;;;;;;;;;;;;;;20.68;32.65;98617.06;5490152;26;978;-75
2024/04/08 11:03:10;;;;;;;;;;;;;;;20.66;32.47;98604.56;5460278;26;1057;-76
2024/04/08 11:05:35;;;;;;;;;;;;;;;20.60;32.89;98604.22;5490139;26;911;-76
2024/04/08 11:08:01;;;;;;;;;;;;;;;20.48;33.14;98616.91;5490384;26;1825;-75
2024/04/08 11:10:27;;;;;;;;;;;;;;;20.40;33.26;98611.72;5490167;26;1175;-76
2024/04/08 11:12:53;;;;;;;;;;;;;;;20.60;32.61;98604.22;5490161;26;1220;-76
2024/04/08 11:15:18;;;;;;;;;;;;;;;20.41;33.01;98607.66;5490137;26;1012;-75
2024/04/08 11:17:44;;;;;;;;;;;;;;;20.68;33.27;98602.13;5489698;26;1141;-76
2024/04/08 11:20:13;;;;;;;;;;;;;;;20.45;34.17;98597.91;5489912;26;920;-76
2024/04/08 11:22:38;;;;;;;;;;;;;;;21.07;33.08;98610.84;5490989;26;1016;-76
2024/04/08 11:25:04;;;;;;;;;;;;;;;20.89;33.64;98601.81;5489611;26;1103;-75
2024/04/08 11:27:30;;;;;;;;;;;;;;;21.03;33.24;98597.97;5489614;26;1830;-75
2024/04/08 11:29:55;;;;;;;;;;;;;;;20.89;33.31;98603.84;5491676;26;1039;-75
2024/04/08 11:32:21;;;;;;;;;;;;;;;20.96;32.80;98592.41;5459251;26;1140;-75
2024/04/08 11:34:47;;;;;;;;;;;;;;;20.84;32.91;98593.00;5489534;26;862;-76
2024/04/08 11:37:12;;;;;;;;;;;;;;;20.56;33.17;98586.50;5459017;26;1227;-75
2024/04/08 11:39:38;;;;;;;;;;;;;;;20.51;33.32;98584.13;5459343;26;937;-75
2024/04/08 11:42:04;;;;;;;;;;;;;;;20.57;32.92;98582.44;5459267;26;908;-76
2024/04/08 11:44:30;;;;;;;;;;;;;;;20.62;32.79;98584.78;5489519;26;960;-76
2024/04/08 11:46:55;;;;;;;;;;;;;;;20.44;33.00;98582.19;5458777;26;1848;-76
2024/04/08 11:49:21;;;;;;;;;;;;;;;20.60;32.66;98575.94;5491130;26;927;-75
2024/04/08 11:51:46;;;;;;;;;;;;;;;20.14;33.56;98565.19;5491611;26;899;-76
2024/04/08 11:54:12;;;;;;;;;;;;;;;20.26;33.44;98573.94;5489350;26;949;-76
2024/04/08 11:56:37;;;;;;;;;;;;;;;19.98;33.66;98571.44;5458750;26;1230;-76
2024/04/08 11:59:03;;;;;;;;;;;;;;;20.34;33.62;98568.97;5458761;26;1478;-76
2024/04/08 12:01:29;;;;;;;;;;;;;;;20.78;33.50;98555.91;5451376;26;904;-76
2024/04/08 12:03:54;;;;;;;;;;;;;;;20.50;34.21;98552.25;5421527;26;929;-76
2024/04/08 12:06:20;;;;;;;;;;;;;;;20.87;33.76;98561.03;5421339;26;1826;-76
2024/04/08 12:08:45;;;;;;;;;;;;;;;20.51;33.96;98550.22;5362696;26;1129;-77
2024/04/08 12:11:11;;;;;;;;;;;;;;;20.57;33.89;98554.16;5421572;26;974;-76
2024/04/08 12:13:37;;;;;;;;;;;;;;;20.19;34.29;98556.25;5451641;26;943;-76
2024/04/08 12:16:02;;;;;;;;;;;;;;;20.48;33.86;98554.72;5350644;26;915;-76
2024/04/08 12:18:28;;;;;;;;;;;;;;;20.77;32.95;98552.25;5379674;26;969;-76
2024/04/08 12:20:54;;;;;;;;;;;;;;;20.58;33.03;98550.13;5350325;26;1356;-76
2024/04/08 12:23:19;;;;;;;;;;;;;;;20.69;32.75;98545.13;5379851;26;939;-76
2024/04/08 12:25:45;;;;;;;;;;;;;;;20.24;33.54;98544.47;5379703;26;901;-76
2024/04/08 12:28:11;;;;;;;;;;;;;;;20.35;33.48;98541.53;5379288;26;1935;-76
2024/04/08 12:30:36;;;;;;;;;;;;;;;20.60;32.74;98544.84;5321578;26;1275;-76
2024/04/08 12:33:02;;;;;;;;;;;;;;;20.56;32.95;98535.59;5321870;26;1251;-76
2024/04/08 12:35:27;;;;;;;;;;;;;;;20.53;33.00;98536.47;5324795;26;1167;-76
2024/04/08 12:37:53;;;;;;;;;;;;;;;20.54;32.86;98538.06;5318722;26;1511;-76
2024/04/08 12:40:18;;;;;;;;;;;;;;;20.16;33.51;98532.47;5347682;26;939;-76
2024/04/08 12:42:44;;;;;;;;;;;;;;;20.33;33.16;98527.03;5348437;26;943;-76
2024/04/08 12:45:09;;;;;;;;;;;;;;;20.64;33.10;98528.63;5318816;26;1062;-76
2024/04/08 12:47:38;;;;;;;;;;;;;;;20.33;34.44;98532.69;5313110;27;1845;-76
2024/04/08 12:50:04;;;;;;;;;;;;;;;21.00;33.40;98528.09;5257447;27;1188;-76
2024/04/08 12:52:33;;;;;;;;;;;;;;;21.10;33.38;98534.81;5284657;27;902;-76